Terminal Aerodrome Forecast
Issued by NWS Des Moines, IA

Home | Current Version | Previous Version | Text Only | Print | Product List | Glossary On
Versions: 1 2 3 4 5 6 7 8 9 10 11 12 13 14 15 16 17 18 19 20 21 22 23 24 25 26 27 28 29 30 31 32 33 34 35 36 37 38 39 40 41 42
405
FTUS43 KDMX 051135
TAFALO
TAF
KALO 051135Z 0512/0612 16008KT 1/4SM FG VV002
     FM051500 17011KT 5SM BR SCT002 BKN020
     FM051700 17014G20KT P6SM BKN110
     FM060100 18010KT P6SM SCT030 BKN070
     FM060900 26008KT P6SM BKN030=

USA.gov is the U.S. government's official web portal to all federal, state and local government web resources and services.